Time;durP1;ratioP1;P1;durP2;ratioP2;P2;SDS_P1;SDS_P2;PMS_P1;PMS_P2;Temp;Humidity;BMP_temperature;BMP_pressure;BME280_temperature;BME280_humidity;BME280_pressure;Samples;Min_cycle;Max_cycle;Signal;HPM_P1;HPM_P2
2023/12/07 00:01:56;;;;;;;15.55;7.03;;;;;;;9.50;100.00;99124.22;5020211;28;20387;-80
2023/12/07 00:04:22;;;;;;;16.05;6.88;;;;;;;9.40;100.00;99121.94;5036124;28;20118;-80
2023/12/07 00:06:50;;;;;;;17.67;7.72;;;;;;;9.35;100.00;99127.09;5019932;28;20090;-80
2023/12/07 00:09:16;;;;;;;13.38;6.30;;;;;;;9.42;100.00;99124.41;5036485;28;20036;-79
2023/12/07 00:11:41;;;;;;;13.80;6.68;;;;;;;9.49;100.00;99127.91;5035882;28;20029;-79
2023/12/07 00:14:07;;;;;;;13.77;5.97;;;;;;;9.49;100.00;99127.09;5019674;28;20039;-79
2023/12/07 00:16:33;;;;;;;15.48;7.00;;;;;;;9.47;100.00;99129.97;5019973;28;20029;-79
2023/12/07 00:18:59;;;;;;;15.45;6.15;;;;;;;9.48;100.00;99117.41;5019615;28;20040;-79
2023/12/07 00:21:25;;;;;;;11.45;5.82;;;;;;;9.51;100.00;99116.97;5019624;28;20057;-79
2023/12/07 00:23:50;;;;;;;14.50;6.85;;;;;;;9.46;100.00;99113.03;5035529;28;20053;-80
2023/12/07 00:26:16;;;;;;;15.95;6.65;;;;;;;9.40;100.00;99100.47;5019872;28;20098;-80
2023/12/07 00:28:44;;;;;;;16.08;7.15;;;;;;;9.45;100.00;99110.59;5052182;28;20082;-79
2023/12/07 00:31:38;;;;;;;18.83;7.93;;;;;;;9.46;100.00;99104.19;5052781;28;20498;-79
2023/12/07 00:35:10;;;;;;;;;;;;;;;;;;;;;
2023/12/07 00:37:48;;;;;;;14.10;5.78;;;;;;;9.33;100.00;99074.69;5053281;28;20032;-79
2023/12/07 00:40:39;;;;;;;11.15;6.25;;;;;;;9.50;100.00;99089.31;5052434;28;20041;-79
2023/12/07 00:43:09;;;;;;;12.75;5.30;;;;;;;9.45;100.00;99091.81;5051890;28;20137;-79
2023/12/07 00:45:36;;;;;;;12.25;4.88;;;;;;;9.37;100.00;99092.03;5019617;28;20110;-79
2023/12/07 00:48:01;;;;;;;15.88;5.65;;;;;;;9.27;100.00;99084.41;5035377;28;20123;-79
2023/12/07 00:50:27;;;;;;;11.82;4.95;;;;;;;9.25;100.00;99079.25;5019371;28;20124;-80
2023/12/07 00:52:53;;;;;;;10.40;5.43;;;;;;;9.20;100.00;99095.13;5035886;28;20044;-80
2023/12/07 00:55:19;;;;;;;8.90;4.93;;;;;;;9.04;100.00;99090.19;5019307;28;20472;-79
2023/12/07 00:57:45;;;;;;;11.02;5.00;;;;;;;8.90;100.00;99091.22;5035763;28;20094;-79
2023/12/07 01:00:11;;;;;;;17.98;5.15;;;;;;;8.72;100.00;99097.19;5019417;28;20041;-80
2023/12/07 01:02:37;;;;;;;14.68;5.40;;;;;;;8.54;100.00;99087.06;5020572;28;20554;-79
2023/12/07 01:05:24;;;;;;;16.23;5.10;;;;;;;8.50;100.00;99088.50;5023159;28;20041;-79
2023/12/07 01:07:50;;;;;;;13.57;5.15;;;;;;;8.59;100.00;99088.09;5022859;28;20500;-79
2023/12/07 01:10:16;;;;;;;23.98;5.05;;;;;;;8.64;100.00;99082.13;5023078;28;20044;-79
2023/12/07 01:12:41;;;;;;;20.90;5.78;;;;;;;8.63;100.00;99080.50;5023309;28;20091;-79
2023/12/07 01:15:07;;;;;;;14.93;5.05;;;;;;;8.62;100.00;99078.81;5039778;28;20047;-79
2023/12/07 01:17:33;;;;;;;14.18;4.70;;;;;;;8.53;100.00;99074.72;5022906;28;20035;-79
2023/12/07 01:19:59;;;;;;;17.48;5.13;;;;;;;8.50;100.00;99072.44;5023129;28;20477;-79
2023/12/07 01:22:25;;;;;;;17.30;5.57;;;;;;;8.43;100.00;99055.53;5023063;28;20049;-80
2023/12/07 01:24:51;;;;;;;24.15;5.63;;;;;;;8.45;100.00;99059.66;5038827;28;20075;-80
2023/12/07 01:27:18;;;;;;;20.25;5.07;;;;;;;8.32;100.00;99047.03;5039855;28;20467;-79
2023/12/07 01:29:43;;;;;;;23.02;6.60;;;;;;;8.25;100.00;99043.50;5039110;28;20029;-79
2023/12/07 01:32:09;;;;;;;18.98;5.28;;;;;;;8.17;100.00;99032.97;5023568;28;20033;-79
2023/12/07 01:34:35;;;;;;;23.70;5.28;;;;;;;8.09;100.00;99019.78;5039290;28;20493;-79
2023/12/07 01:37:03;;;;;;;15.18;4.43;;;;;;;8.07;100.00;99030.72;5038739;28;20522;-79
2023/12/07 01:39:44;;;;;;;13.45;4.43;;;;;;;8.08;100.00;99035.03;5022241;28;20110;-79
2023/12/07 01:42:40;;;;;;;14.38;5.18;;;;;;;8.13;100.00;99027.22;5039919;28;20061;-79
2023/12/07 01:45:21;;;;;;;17.10;6.07;;;;;;;8.02;100.00;98997.53;5039539;28;20029;-79
2023/12/07 01:48:43;;;;;;;17.95;4.72;;;;;;;8.08;100.00;98986.03;5023725;28;20051;-79
2023/12/07 01:51:14;;;;;;;26.80;5.82;;;;;;;8.18;100.00;98989.13;5024389;28;20396;-79
2023/12/07 01:53:40;;;;;;;11.40;3.40;;;;;;;8.19;100.00;98998.81;5054673;28;20071;-79
2023/12/07 01:56:07;;;;;;;18.45;5.13;;;;;;;8.26;100.00;98998.81;5022003;28;20051;-79
2023/12/07 01:58:33;;;;;;;16.67;4.35;;;;;;;8.27;100.00;99000.47;5022557;28;20041;-80
2023/12/07 02:00:59;;;;;;;25.42;5.38;;;;;;;8.22;100.00;99002.94;5022233;28;20029;-79
2023/12/07 02:03:27;;;;;;;15.27;4.43;;;;;;;8.19;100.00;99004.16;5022424;28;20082;-79
2023/12/07 02:05:53;;;;;;;23.60;5.95;;;;;;;8.15;100.00;99001.06;5022410;28;20035;-79
2023/12/07 02:08:19;;;;;;;17.30;4.65;;;;;;;8.13;100.00;98995.09;5021895;28;20040;-79
2023/12/07 02:10:45;;;;;;;22.23;5.43;;;;;;;8.21;100.00;98990.56;5021677;28;20033;-80
2023/12/07 02:13:11;;;;;;;24.65;5.60;;;;;;;8.15;100.00;98982.34;5038145;28;20037;-79
2023/12/07 02:15:37;;;;;;;24.02;5.40;;;;;;;8.20;100.00;98978.19;5021273;28;20052;-79
2023/12/07 02:18:12;;;;;;;16.75;5.40;;;;;;;8.13;100.00;98972.84;5038575;28;20037;-79
2023/12/07 02:21:27;;;;;;;18.73;5.28;;;;;;;8.21;100.00;98982.53;5038290;28;20041;-79
2023/12/07 02:24:08;;;;;;;25.65;5.20;;;;;;;8.22;100.00;98973.47;4983745;28;20608;-79
2023/12/07 02:26:58;;;;;;;19.13;5.03;;;;;;;8.20;100.00;98979.03;5003503;28;20030;-79
2023/12/07 02:33:47;;;;;;;12.73;3.72;;;;;;;8.11;100.00;98967.69;4996691;28;20117;-79
2023/12/07 02:36:40;;;;;;;24.15;5.45;;;;;;;8.24;100.00;98985.63;4969778;28;20121;-79
2023/12/07 02:39:16;;;;;;;22.50;5.63;;;;;;;8.31;100.00;98982.97;5015520;28;20479;-79
2023/12/07 02:42:07;;;;;;;22.85;4.63;;;;;;;8.24;100.00;98999.00;5038468;28;20040;-80
2023/12/07 02:48:09;;;;;;;36.28;6.80;;;;;;;8.12;100.00;98961.31;5054458;28;20029;-79
2023/12/07 02:51:01;;;;;;;20.88;4.72;;;;;;;8.08;100.00;98954.72;5037564;28;20078;-80
2023/12/07 02:53:31;;;;;;;25.92;5.63;;;;;;;8.13;100.00;98946.09;5015808;28;20052;-80
2023/12/07 02:56:24;;;;;;;26.10;5.93;;;;;;;8.08;100.00;98949.38;5022372;28;20452;-79
2023/12/07 02:59:01;;;;;;;21.25;5.13;;;;;;;8.14;100.00;98966.47;5039137;28;20049;-80
2023/12/07 03:01:27;;;;;;;27.40;5.35;;;;;;;8.20;100.00;98952.25;5021059;28;20124;-79
2023/12/07 03:03:53;;;;;;;26.00;5.35;;;;;;;8.28;100.00;98948.56;5020721;28;20093;-79
2023/12/07 03:06:19;;;;;;;29.00;5.30;;;;;;;8.25;100.00;98932.91;5020924;28;20029;-79
2023/12/07 03:08:48;;;;;;;20.67;5.05;;;;;;;8.24;100.00;98931.25;5021424;28;20068;-79
2023/12/07 03:11:24;;;;;;;25.77;6.10;;;;;;;8.30;100.00;98930.44;5023082;28;20029;-79
2023/12/07 03:13:50;;;;;;;33.53;5.93;;;;;;;8.32;100.00;98929.19;5037277;28;20051;-79
2023/12/07 03:16:15;;;;;;;25.77;5.40;;;;;;;8.35;100.00;98933.31;5021241;28;20392;-79
2023/12/07 03:18:41;;;;;;;21.35;4.97;;;;;;;8.35;100.00;98923.41;5037001;28;20044;-79
2023/12/07 03:21:07;;;;;;;21.40;5.18;;;;;;;8.29;100.00;98916.22;5053260;28;20073;-79
2023/12/07 03:23:32;;;;;;;26.77;5.55;;;;;;;8.20;100.00;98903.25;5020745;28;20037;-79
2023/12/07 03:25:58;;;;;;;17.48;4.97;;;;;;;8.18;100.00;98906.13;5020386;28;20376;-79
2023/12/07 03:28:24;;;;;;;22.15;4.28;;;;;;;8.09;100.00;98891.28;5020716;28;20056;-79
2023/12/07 03:30:52;;;;;;;18.90;5.03;;;;;;;8.05;100.00;98884.72;5020269;28;20039;-78
2023/12/07 03:36:44;;;;;;;21.77;5.07;;;;;;;8.13;100.00;98863.91;5039472;28;20434;-79
2023/12/07 03:39:33;;;;;;;23.33;5.47;;;;;;;8.09;100.00;98851.16;5022819;28;20044;-79
2023/12/07 03:42:21;;;;;;;;;;;;;;;;;;;;;
2023/12/07 03:45:12;;;;;;;24.45;5.43;;;;;;;8.25;100.00;98852.56;5047354;28;20490;-78
2023/12/07 03:47:48;;;;;;;24.38;6.00;;;;;;;8.27;100.00;98854.00;5020887;28;20041;-79
2023/12/07 03:50:23;;;;;;;24.70;5.07;;;;;;;8.33;100.00;98865.75;5023016;28;20097;-79
2023/12/07 03:53:23;;;;;;;22.15;5.07;;;;;;;8.17;100.00;98842.06;5019641;28;20064;-79
2023/12/07 03:59:28;;;;;;;27.38;4.63;;;;;;;8.10;100.00;98826.84;5053337;28;20128;-79
2023/12/07 04:02:09;;;;;;;29.90;5.47;;;;;;;8.16;100.00;98819.84;5019528;28;20047;-79
2023/12/07 04:04:40;;;;;;;25.35;5.68;;;;;;;8.26;100.00;98822.94;5052828;28;20433;-79
2023/12/07 04:07:38;;;;;;;25.50;5.97;;;;;;;8.24;100.00;98808.09;5036390;28;20033;-79
2023/12/07 04:10:06;;;;;;;27.33;4.95;;;;;;;8.38;100.00;98815.88;4997915;28;20099;-79
2023/12/07 04:12:32;;;;;;;31.52;6.28;;;;;;;8.38;100.00;98813.22;5036518;28;20456;-79
2023/12/07 04:14:57;;;;;;;37.17;5.70;;;;;;;8.43;100.00;98809.13;5052545;28;20032;-79
2023/12/07 04:17:23;;;;;;;26.40;5.35;;;;;;;8.48;100.00;98799.41;5019846;28;20028;-79
2023/12/07 04:19:49;;;;;;;29.17;5.90;;;;;;;8.52;100.00;98799.81;5020003;28;20426;-79
2023/12/07 04:22:14;;;;;;;24.25;5.35;;;;;;;8.51;100.00;98793.63;5036197;28;20467;-79
2023/12/07 04:24:40;;;;;;;26.92;5.28;;;;;;;8.50;100.00;98783.16;5019724;28;20464;-79
2023/12/07 04:27:08;;;;;;;31.08;5.00;;;;;;;8.48;100.00;98766.47;5019725;28;20391;-79
2023/12/07 04:29:35;;;;;;;28.90;5.07;;;;;;;8.49;100.00;98771.59;5019397;28;20479;-79
2023/12/07 04:32:02;;;;;;;29.88;5.30;;;;;;;8.48;100.00;98755.75;5035930;28;20112;-80
2023/12/07 04:34:30;;;;;;;20.20;3.78;;;;;;;8.49;100.00;98752.03;5019529;28;20551;-79
2023/12/07 04:36:56;;;;;;;30.38;5.38;;;;;;;8.57;100.00;98763.34;5019095;28;20068;-80
2023/12/07 04:39:22;;;;;;;37.65;5.13;;;;;;;8.65;100.00;98766.81;5051992;28;20462;-79
2023/12/07 04:41:47;;;;;;;24.88;6.10;;;;;;;8.66;100.00;98758.56;5019626;28;20128;-79
2023/12/07 04:44:13;;;;;;;24.08;4.57;;;;;;;8.65;100.00;98740.84;5019614;28;20059;-79
2023/12/07 04:46:39;;;;;;;30.33;4.90;;;;;;;8.70;100.00;98743.69;5019620;28;20036;-80
2023/12/07 04:49:04;;;;;;;32.63;5.22;;;;;;;8.72;100.00;98736.28;5019468;28;20043;-79
2023/12/07 04:51:30;;;;;;;28.80;4.55;;;;;;;8.74;100.00;98728.03;5019195;28;20033;-79
2023/12/07 04:53:56;;;;;;;19.20;4.72;;;;;;;8.73;100.00;98711.13;5035765;28;20436;-79
2023/12/07 04:56:21;;;;;;;24.98;4.80;;;;;;;8.71;100.00;98712.38;5019209;28;20079;-79
2023/12/07 04:58:47;;;;;;;24.33;4.13;;;;;;;8.68;100.00;98707.44;5035351;28;20365;-79
2023/12/07 05:01:13;;;;;;;13.48;3.85;;;;;;;8.68;100.00;98720.81;5019378;28;20041;-79
2023/12/07 05:03:39;;;;;;;24.90;4.40;;;;;;;8.78;100.00;98713.97;5019379;28;20091;-79
2023/12/07 05:06:10;;;;;;;31.95;5.63;;;;;;;8.82;100.00;98692.94;5035237;28;20032;-79
2023/12/07 05:09:03;;;;;;;25.23;5.07;;;;;;;8.87;100.00;98698.50;5051722;28;20059;-79
2023/12/07 05:11:38;;;;;;;19.67;3.63;;;;;;;8.79;100.00;98664.72;5034801;28;20087;-79
2023/12/07 05:17:45;;;;;;;19.15;3.35;;;;;;;8.84;100.00;98690.88;5047722;28;20068;-79
2023/12/07 05:20:22;;;;;;;22.23;5.03;;;;;;;8.76;100.00;98683.09;5017039;28;20033;-80
2023/12/07 05:22:48;;;;;;;16.70;3.72;;;;;;;8.76;100.00;98677.75;5035878;28;20489;-79
2023/12/07 05:25:14;;;;;;;21.25;4.35;;;;;;;8.91;100.00;98685.47;5018420;28;20135;-78
2023/12/07 05:27:40;;;;;;;18.13;3.90;;;;;;;8.98;100.00;98678.22;5035261;28;20112;-79
2023/12/07 05:30:06;;;;;;;22.27;4.47;;;;;;;9.09;100.00;98682.88;5034832;28;20032;-79
2023/12/07 05:32:32;;;;;;;18.38;5.00;;;;;;;9.12;100.00;98689.66;5035560;28;20036;-79
2023/12/07 05:34:58;;;;;;;17.83;2.92;;;;;;;9.16;100.00;98686.34;5018765;28;20037;-79
2023/12/07 05:37:23;;;;;;;30.88;4.68;;;;;;;9.18;100.00;98675.38;5019088;28;20037;-79
2023/12/07 05:39:49;;;;;;;14.48;3.67;;;;;;;9.17;100.00;98687.16;5019184;28;20032;-79
2023/12/07 05:42:15;;;;;;;19.13;3.88;;;;;;;9.22;100.00;98682.78;5019108;28;20414;-79
2023/12/07 05:44:44;;;;;;;23.00;3.55;;;;;;;9.32;100.00;98690.34;5019113;28;20048;-79
2023/12/07 05:47:18;;;;;;;16.23;3.40;;;;;;;9.36;100.00;98680.81;5034846;28;20083;-79
2023/12/07 05:49:44;;;;;;;15.07;3.22;;;;;;;9.46;100.00;98674.94;5054335;28;20050;-79
2023/12/07 05:52:25;;;;;;;17.15;3.30;;;;;;;9.42;100.00;98655.81;5040670;28;20060;-79
2023/12/07 05:55:24;;;;;;;13.40;3.50;;;;;;;9.54;100.00;98658.56;5038498;28;20025;-79
2023/12/07 05:57:58;;;;;;;13.60;2.80;;;;;;;9.63;100.00;98654.59;5039043;28;20051;-79
2023/12/07 06:00:25;;;;;;;6.88;1.70;;;;;;;9.68;100.00;98657.44;5038667;28;20033;-79
2023/12/07 06:02:56;;;;;;;18.98;3.45;;;;;;;9.65;100.00;98659.72;5055328;28;20045;-79
2023/12/07 06:05:22;;;;;;;7.55;2.00;;;;;;;9.67;100.00;98646.91;5022260;28;20106;-79
2023/12/07 06:07:48;;;;;;;9.05;2.03;;;;;;;9.69;100.00;98628.72;5022276;28;20471;-79
2023/12/07 06:10:13;;;;;;;17.45;3.30;;;;;;;9.71;100.00;98612.38;5022123;28;20029;-79
2023/12/07 06:12:39;;;;;;;12.38;2.42;;;;;;;9.74;100.00;98603.88;5022266;28;20040;-79
2023/12/07 06:15:09;;;;;;;9.60;2.08;;;;;;;9.79;100.00;98591.47;5038229;28;20045;-79
2023/12/07 06:17:42;;;;;;;15.32;3.05;;;;;;;9.83;100.00;98600.69;5038652;28;20438;-79
2023/12/07 06:20:37;;;;;;;16.33;2.83;;;;;;;9.81;100.00;98583.16;5021526;28;20087;-79
2023/12/07 06:23:31;;;;;;;17.50;3.28;;;;;;;9.83;100.00;98581.09;5053566;28;20090;-79
2023/12/07 06:26:06;;;;;;;14.35;3.05;;;;;;;9.73;100.00;98572.72;5021597;28;20021;-79
2023/12/07 06:28:32;;;;;;;16.40;3.95;;;;;;;9.86;100.00;98564.53;5054444;28;20031;-79
2023/12/07 06:30:57;;;;;;;11.82;3.70;;;;;;;9.89;100.00;98567.56;5021704;28;20037;-79
2023/12/07 06:33:23;;;;;;;14.45;4.22;;;;;;;9.90;100.00;98565.72;5021743;28;20044;-79
2023/12/07 06:35:49;;;;;;;11.35;2.78;;;;;;;9.99;100.00;98556.31;5021729;28;20036;-79
2023/12/07 06:38:14;;;;;;;11.23;2.63;;;;;;;10.01;100.00;98559.59;5021730;28;20039;-79
2023/12/07 06:40:40;;;;;;;8.35;2.08;;;;;;;10.00;100.00;98554.44;5021483;28;20036;-80
2023/12/07 06:43:06;;;;;;;10.05;3.10;;;;;;;10.01;100.00;98556.09;5038180;28;20549;-79
2023/12/07 06:45:31;;;;;;;12.20;2.97;;;;;;;9.99;100.00;98542.88;5037765;28;20037;-79
2023/12/07 06:47:57;;;;;;;10.27;2.75;;;;;;;10.02;100.00;98541.63;5037809;28;20468;-79
2023/12/07 06:50:23;;;;;;;8.52;2.15;;;;;;;10.01;100.00;98540.81;5021073;28;20029;-78
2023/12/07 06:52:48;;;;;;;15.98;2.05;;;;;;;10.04;100.00;98534.16;5021540;28;20055;-79
2023/12/07 06:55:15;;;;;;;13.13;2.95;;;;;;;10.04;100.00;98521.53;5054372;28;20032;-78
2023/12/07 06:57:40;;;;;;;14.65;3.35;;;;;;;10.05;100.00;98523.19;5021219;28;20040;-80
2023/12/07 07:00:10;;;;;;;8.98;2.17;;;;;;;10.05;100.00;98519.69;5020435;28;20029;-79
2023/12/07 07:02:38;;;;;;;7.35;2.40;;;;;;;10.03;100.00;98519.06;5037685;28;20036;-79
2023/12/07 07:05:05;;;;;;;9.65;2.13;;;;;;;10.07;100.00;98515.72;5053567;28;20033;-80
2023/12/07 07:07:31;;;;;;;11.65;2.35;;;;;;;10.11;100.00;98510.72;5037784;28;20033;-79
2023/12/07 07:09:57;;;;;;;7.57;1.65;;;;;;;10.16;100.00;98505.50;5020894;28;20091;-79
2023/12/07 07:12:23;;;;;;;9.90;2.45;;;;;;;10.14;100.00;98491.47;5037362;28;20033;-79
2023/12/07 07:14:49;;;;;;;5.80;2.00;;;;;;;10.14;100.00;98483.41;5037094;28;20032;-79
2023/12/07 07:17:15;;;;;;;8.20;2.60;;;;;;;10.15;100.00;98482.34;5020804;28;20037;-79
2023/12/07 07:19:43;;;;;;;6.50;2.00;;;;;;;10.17;100.00;98482.97;5037209;28;20444;-79
2023/12/07 07:22:09;;;;;;;9.38;1.88;;;;;;;10.18;100.00;98471.16;5020764;28;20094;-79
2023/12/07 07:24:34;;;;;;;11.68;2.17;;;;;;;10.23;100.00;98470.47;5020463;28;20120;-79
2023/12/07 07:27:00;;;;;;;10.25;2.13;;;;;;;10.26;100.00;98462.75;5020942;28;20033;-79
2023/12/07 07:29:27;;;;;;;6.10;2.03;;;;;;;10.33;100.00;98465.41;5020553;28;20141;-79
2023/12/07 07:31:53;;;;;;;18.83;3.72;;;;;;;10.34;100.00;98467.84;5020584;28;20040;-79
2023/12/07 07:34:18;;;;;;;13.40;2.58;;;;;;;10.41;100.00;98472.31;5053169;28;20029;-79
2023/12/07 07:36:44;;;;;;;15.45;3.08;;;;;;;10.46;100.00;98462.50;5020589;28;20040;-79
2023/12/07 07:39:13;;;;;;;10.68;2.65;;;;;;;10.48;100.00;98460.41;5035215;28;20032;-80
2023/12/07 07:41:39;;;;;;;8.32;1.98;;;;;;;10.47;100.00;98445.31;5053071;28;20033;-79
2023/12/07 07:44:05;;;;;;;11.20;2.38;;;;;;;10.50;100.00;98438.66;5020239;28;20126;-79
2023/12/07 07:46:31;;;;;;;12.68;2.25;;;;;;;10.49;100.00;98440.53;5020222;28;20048;-79
2023/12/07 07:48:56;;;;;;;14.73;2.60;;;;;;;10.47;100.00;98428.38;5019945;28;20399;-79
2023/12/07 07:51:22;;;;;;;17.17;3.50;;;;;;;10.47;100.00;98433.75;5036107;28;20055;-79
2023/12/07 07:53:48;;;;;;;17.70;5.22;;;;;;;10.47;100.00;98436.44;5020270;28;20036;-79
2023/12/07 07:56:13;;;;;;;17.13;5.68;;;;;;;10.54;100.00;98439.84;5036285;28;20514;-79
2023/12/07 07:58:39;;;;;;;16.42;5.63;;;;;;;10.54;100.00;98427.22;5020727;28;20036;-79
2023/12/07 08:01:05;;;;;;;15.70;3.65;;;;;;;10.54;100.00;98432.59;5020141;28;20032;-79
2023/12/07 08:03:31;;;;;;;17.27;4.13;;;;;;;10.58;100.00;98411.44;5035092;28;20060;-79
2023/12/07 08:05:57;;;;;;;6.97;2.65;;;;;;;10.62;100.00;98419.88;5052922;28;20075;-79
2023/12/07 08:08:22;;;;;;;16.98;4.18;;;;;;;10.56;100.00;98414.38;5019711;28;20048;-79
2023/12/07 08:10:48;;;;;;;15.85;4.30;;;;;;;10.57;100.00;98399.06;5019796;28;20033;-79
2023/12/07 08:13:14;;;;;;;12.45;4.25;;;;;;;10.51;100.00;98390.09;5019126;28;20032;-79
2023/12/07 08:15:39;;;;;;;13.32;3.70;;;;;;;10.38;100.00;98392.19;5036036;28;20098;-80
2023/12/07 08:18:05;;;;;;;14.45;3.17;;;;;;;10.25;100.00;98385.94;5019481;28;20025;-79
2023/12/07 08:20:31;;;;;;;8.32;2.88;;;;;;;10.14;100.00;98378.69;5020283;28;20060;-79
2023/12/07 08:22:56;;;;;;;4.80;1.92;;;;;;;10.11;100.00;98373.78;5019840;28;20029;-80
2023/12/07 08:25:22;;;;;;;14.45;3.20;;;;;;;10.07;100.00;98372.59;5035701;28;20386;-79
2023/12/07 08:27:48;;;;;;;13.20;3.25;;;;;;;10.02;100.00;98351.81;5019882;28;20060;-80
2023/12/07 08:30:14;;;;;;;9.70;3.78;;;;;;;10.03;100.00;98345.41;5035762;28;20457;-80
2023/12/07 08:32:39;;;;;;;8.75;2.63;;;;;;;10.03;100.00;98323.09;5036003;28;20028;-80
2023/12/07 08:35:06;;;;;;;9.38;2.50;;;;;;;10.01;100.00;98301.06;5019624;28;20037;-80
2023/12/07 08:37:37;;;;;;;0.32;0.32;;;;;;;9.93;100.00;98301.41;5019743;28;20029;-80
2023/12/07 08:40:03;;;;;;;0.30;0.30;;;;;;;9.98;100.00;98301.53;5052489;28;20083;-80
2023/12/07 08:42:31;;;;;;;0.30;0.30;;;;;;;9.96;100.00;98299.06;5035688;28;20033;-80
2023/12/07 08:44:57;;;;;;;0.40;0.40;;;;;;;9.95;100.00;98284.00;5052137;28;20460;-80
2023/12/07 08:47:22;;;;;;;0.30;0.30;;;;;;;9.95;100.00;98288.53;5019497;28;20123;-80
2023/12/07 08:49:57;;;;;;;0.30;0.30;;;;;;;9.98;100.00;98298.84;5051872;28;20754;-80
2023/12/07 08:52:35;;;;;;;0.40;0.40;;;;;;;10.01;100.00;98312.59;5051112;28;20103;-81
2023/12/07 08:55:30;;;;;;;0.30;0.30;;;;;;;9.95;100.00;98283.16;5033989;28;20115;-80
2023/12/07 08:58:20;;;;;;;0.30;0.30;;;;;;;10.00;100.00;98280.59;5034762;28;20025;-82
2023/12/07 09:01:11;;;;;;;0.32;0.32;;;;;;;10.11;100.00;98283.31;5036650;28;20180;-80
2023/12/07 09:03:51;;;;;;;0.30;0.30;;;;;;;10.11;100.00;98272.56;5036944;28;20120;-80
2023/12/07 09:06:22;;;;;;;0.35;0.35;;;;;;;10.11;100.00;98272.56;5021433;28;20041;-79
2023/12/07 09:09:34;;;;;;;0.30;0.30;;;;;;;10.08;100.00;98254.25;5019180;28;20051;-80
2023/12/07 09:12:35;;;;;;;0.40;0.40;;;;;;;10.10;100.00;98246.75;5038917;28;20040;-79
2023/12/07 09:15:37;;;;;;;;;;;;;;;10.28;100.00;98258.47;5021389;28;20378;-79
2023/12/07 09:18:52;;;;;;;;;;;;;;;;;;;;;
2023/12/07 09:21:48;;;;;;;0.40;0.40;;;;;;;10.16;100.00;98220.00;5038183;28;20470;-79
2023/12/07 09:27:57;;;;;;;0.30;0.30;;;;;;;10.25;100.00;98230.16;4967630;28;20423;-80
2023/12/07 09:30:49;;;;;;;0.40;0.40;;;;;;;10.34;100.00;98247.56;5042747;28;20036;-80
2023/12/07 09:33:16;;;;;;;0.30;0.30;;;;;;;10.36;100.00;98252.72;5022727;28;20041;-80
2023/12/07 09:35:42;;;;;;;0.38;0.38;;;;;;;10.34;100.00;98263.69;5022954;28;20546;-80
2023/12/07 09:38:08;;;;;;;0.40;0.40;;;;;;;10.34;100.00;98273.63;5022728;28;20120;-80
2023/12/07 09:40:33;;;;;;;0.30;0.30;;;;;;;10.36;100.00;98308.31;5038266;28;20128;-81
2023/12/07 09:42:59;;;;;;;0.30;0.30;;;;;;;10.34;100.00;98303.16;5020661;28;20112;-81
2023/12/07 09:45:25;;;;;;;0.30;0.30;;;;;;;10.30;100.00;98275.97;5020345;28;20086;-82
2023/12/07 09:47:52;;;;;;;0.30;0.30;;;;;;;10.19;100.00;98276.78;5053556;28;20036;-81
2023/12/07 09:50:23;;;;;;;0.30;0.30;;;;;;;10.24;100.00;98305.59;5036610;28;20036;-81
2023/12/07 09:52:50;;;;;;;0.40;0.40;;;;;;;10.25;100.00;98318.00;5020581;28;20120;-81
2023/12/07 09:55:17;;;;;;;0.32;0.32;;;;;;;10.27;100.00;98314.06;5020561;28;20040;-82
2023/12/07 09:57:43;;;;;;;0.40;0.40;;;;;;;10.27;100.00;98292.56;5021520;28;20036;-80
2023/12/07 10:00:13;;;;;;;0.40;0.40;;;;;;;10.24;100.00;98292.16;5038525;28;20032;-81
2023/12/07 10:02:42;;;;;;;0.40;0.40;;;;;;;10.23;100.00;98302.09;5039088;28;20471;-79
2023/12/07 10:05:19;;;;;;;0.32;0.32;;;;;;;10.21;100.00;98298.00;5054872;28;20098;-78
2023/12/07 10:07:49;;;;;;;0.30;0.30;;;;;;;10.15;100.00;98290.91;5039736;28;20037;-78
2023/12/07 10:10:16;;;;;;;0.30;0.30;;;;;;;10.08;100.00;98282.94;5022207;28;20463;-79
2023/12/07 10:12:51;;;;;;;0.38;0.38;;;;;;;10.08;100.00;98278.41;5037509;28;20033;-81
2023/12/07 10:15:18;;;;;;;0.40;0.40;;;;;;;10.08;100.00;98285.63;5022636;28;20072;-79
2023/12/07 10:17:51;;;;;;;0.40;0.40;;;;;;;10.18;100.00;98288.56;5055663;28;20178;-80
2023/12/07 10:20:23;;;;;;;;;;;;;;;10.42;100.00;98294.75;5038879;28;20104;-79
2023/12/07 10:23:04;;;;;;;0.40;0.40;;;;;;;10.54;100.00;98292.06;5055611;28;19908;-78
2023/12/07 10:25:31;;;;;;;0.40;0.40;;;;;;;10.65;100.00;98298.47;5038609;28;20033;-79
2023/12/07 10:27:57;;;;;;;0.30;0.30;;;;;;;10.68;100.00;98298.81;5022023;28;20132;-78
2023/12/07 10:30:25;;;;;;;0.38;0.38;;;;;;;10.67;100.00;98294.50;5054539;28;20100;-79
2023/12/07 10:32:52;;;;;;;0.40;0.40;;;;;;;10.63;100.00;98306.75;5022235;28;20029;-78
2023/12/07 10:35:18;;;;;;;0.30;0.30;;;;;;;10.54;100.00;98318.94;5053727;28;20029;-78
2023/12/07 10:37:44;;;;;;;0.30;0.30;;;;;;;10.45;100.00;98318.50;5021743;28;20540;-79
2023/12/07 10:40:13;;;;;;;0.40;0.40;;;;;;;10.36;100.00;98314.50;5021730;28;20529;-79
2023/12/07 10:42:41;;;;;;;0.38;0.38;;;;;;;10.33;100.00;98314.97;5021562;28;20036;-79
2023/12/07 10:45:07;;;;;;;0.40;0.40;;;;;;;10.24;100.00;98314.50;5037942;28;20033;-79
2023/12/07 10:47:38;;;;;;;0.40;0.40;;;;;;;10.23;100.00;98317.41;5037550;28;20025;-79
2023/12/07 10:50:10;;;;;;;0.40;0.40;;;;;;;10.17;100.00;98323.72;5037545;28;20661;-79
2023/12/07 10:52:45;;;;;;;0.40;0.40;;;;;;;9.99;100.00;98327.31;5022271;28;20079;-79
2023/12/07 10:55:20;;;;;;;0.38;0.38;;;;;;;9.77;100.00;98313.63;5021443;28;20036;-79
2023/12/07 10:57:47;;;;;;;0.40;0.40;;;;;;;9.76;100.00;98323.50;5021497;28;20120;-79
2023/12/07 11:00:13;;;;;;;0.40;0.40;;;;;;;9.78;100.00;98323.28;5021403;28;20460;-78
2023/12/07 11:02:39;;;;;;;0.40;0.40;;;;;;;9.84;100.00;98317.84;5037346;28;20061;-79
2023/12/07 11:05:06;;;;;;;0.40;0.40;;;;;;;9.96;100.00;98327.78;5021507;28;20499;-79
2023/12/07 11:07:57;;;;;;;0.45;0.45;;;;;;;10.02;100.00;98342.94;5053920;28;20029;-79
2023/12/07 11:10:36;;;;;;;0.40;0.40;;;;;;;10.16;100.00;98332.78;5054492;28;20387;-79
2023/12/07 11:13:17;;;;;;;0.38;0.38;;;;;;;10.15;100.00;98321.25;5021697;28;20118;-79
2023/12/07 11:15:43;;;;;;;0.50;0.50;;;;;;;10.24;100.00;98325.22;5021145;28;20041;-79
2023/12/07 11:18:09;;;;;;;0.40;0.40;;;;;;;10.24;100.00;98324.38;5036998;28;20033;-79
2023/12/07 11:20:43;;;;;;;0.40;0.40;;;;;;;10.17;100.00;98329.06;5020952;28;20119;-79
2023/12/07 11:23:09;;;;;;;0.40;0.40;;;;;;;10.13;100.00;98323.34;5037576;28;20037;-79
2023/12/07 11:25:36;;;;;;;0.40;0.40;;;;;;;10.03;100.00;98317.72;5020690;28;20128;-79
2023/12/07 11:28:06;;;;;;;0.40;0.40;;;;;;;9.95;100.00;98321.59;5020781;28;20106;-79
2023/12/07 11:30:33;;;;;;;0.40;0.40;;;;;;;9.87;100.00;98327.28;5037161;28;20029;-79
2023/12/07 11:33:00;;;;;;;0.50;0.50;;;;;;;9.83;100.00;98323.44;5053328;28;20529;-79
2023/12/07 11:35:25;;;;;;;0.40;0.40;;;;;;;9.84;100.00;98311.63;5020327;28;20040;-79
2023/12/07 11:38:11;;;;;;;0.40;0.40;;;;;;;9.88;100.00;98313.63;5020723;28;20040;-79
2023/12/07 11:40:41;;;;;;;0.40;0.40;;;;;;;9.95;100.00;98312.69;5037089;28;20047;-79
2023/12/07 11:43:07;;;;;;;0.40;0.40;;;;;;;10.16;100.00;98314.84;5020582;28;20479;-79
2023/12/07 11:45:51;;;;;;;0.40;0.40;;;;;;;10.67;100.00;98316.00;5020246;28;20037;-80
2023/12/07 11:48:21;;;;;;;0.40;0.40;;;;;;;11.03;100.00;98310.53;5037092;28;20061;-80
2023/12/07 11:50:55;;;;;;;0.40;0.40;;;;;;;11.48;100.00;98317.84;5020962;28;20120;-79
2023/12/07 11:53:22;;;;;;;0.50;0.50;;;;;;;11.79;100.00;98306.56;5036867;28;20028;-79
2023/12/07 11:55:48;;;;;;;0.40;0.40;;;;;;;11.74;100.00;98311.84;5020552;28;20110;-79
2023/12/07 11:58:14;;;;;;;0.40;0.40;;;;;;;11.64;100.00;98298.22;5036301;28;20475;-79
2023/12/07 12:00:39;;;;;;;0.30;0.30;;;;;;;11.55;100.00;98292.41;5018841;28;20093;-80
2023/12/07 12:03:06;;;;;;;0.40;0.40;;;;;;;11.41;100.00;98278.47;5019582;28;20029;-79
2023/12/07 12:05:31;;;;;;;0.40;0.40;;;;;;;11.40;100.00;98290.25;5020139;28;20061;-79
2023/12/07 12:07:57;;;;;;;0.50;0.50;;;;;;;11.38;100.00;98291.59;5036247;28;20059;-80
2023/12/07 12:10:25;;;;;;;0.40;0.40;;;;;;;11.37;100.00;98290.75;5020050;28;20040;-81